Time;durP1;ratioP1;P1;durP2;ratioP2;P2;SDS_P1;SDS_P2;PMS_P1;PMS_P2;Temp;Humidity;BMP_temperature;BMP_pressure;BME280_temperature;BME280_humidity;BME280_pressure;Samples;Min_cycle;Max_cycle;Signal;HPM_P1;HPM_P2
2021/12/20 00:00:39;;;;;;;60.60;24.77;;;4.50;99.90;;;;;;5114585;28;20089;-85
2021/12/20 00:03:06;;;;;;;74.80;26.30;;;4.60;99.90;;;;;;5114036;28;20508;-83
2021/12/20 00:05:36;;;;;;;68.95;26.17;;;4.60;99.90;;;;;;5114163;28;20066;-84
2021/12/20 00:08:03;;;;;;;57.55;25.63;;;4.60;99.90;;;;;;5114550;28;20055;-84
2021/12/20 00:10:30;;;;;;;63.70;25.48;;;4.60;99.90;;;;;;5114050;28;20047;-84
2021/12/20 00:12:57;;;;;;;61.83;26.60;;;4.50;99.90;;;;;;5112508;28;20100;-84
2021/12/20 00:15:26;;;;;;;61.80;26.02;;;4.50;99.90;;;;;;5112631;28;20079;-84
2021/12/20 00:17:53;;;;;;;61.40;26.90;;;4.50;99.90;;;;;;5113734;28;20498;-84
2021/12/20 00:20:21;;;;;;;64.30;25.08;;;4.50;99.90;;;;;;5114309;28;20043;-84
2021/12/20 00:22:48;;;;;;;60.25;25.15;;;4.50;99.90;;;;;;5114308;28;20044;-84
2021/12/20 00:25:15;;;;;;;62.08;25.00;;;4.50;99.90;;;;;;5114229;28;20059;-84
2021/12/20 00:27:42;;;;;;;69.28;29.50;;;4.50;99.90;;;;;;5114095;28;20059;-84
2021/12/20 00:30:11;;;;;;;59.50;25.30;;;4.50;99.90;;;;;;5113838;28;20488;-84
2021/12/20 00:32:40;;;;;;;53.63;22.50;;;4.60;99.90;;;;;;5114266;28;20040;-84
2021/12/20 00:35:08;;;;;;;52.22;25.40;;;4.80;99.90;;;;;;5113812;28;20399;-84
2021/12/20 00:40:20;;;;;;;51.25;24.27;;;4.70;99.90;;;;;;5113811;28;20055;-84
2021/12/20 00:42:48;;;;;;;63.05;25.77;;;4.70;99.90;;;;;;5113576;28;20501;-84
2021/12/20 00:45:16;;;;;;;54.28;25.40;;;4.70;99.90;;;;;;5113983;28;20124;-85
2021/12/20 00:47:44;;;;;;;59.22;27.20;;;4.70;99.90;;;;;;5113857;28;20101;-85
2021/12/20 00:50:13;;;;;;;69.28;27.90;;;4.70;99.90;;;;;;5113751;28;20089;-84
2021/12/20 00:52:40;;;;;;;60.28;25.27;;;4.60;99.90;;;;;;5116173;28;20079;-84
2021/12/20 00:55:08;;;;;;;65.03;27.33;;;4.60;99.90;;;;;;5117545;28;20069;-85
2021/12/20 00:57:36;;;;;;;61.25;26.35;;;4.70;99.90;;;;;;5117828;28;20043;-85
2021/12/20 01:00:05;;;;;;;59.47;25.55;;;4.70;99.90;;;;;;5117823;28;20044;-84
2021/12/20 01:02:32;;;;;;;62.08;26.80;;;4.70;99.90;;;;;;5117435;28;20047;-85
2021/12/20 01:05:01;;;;;;;67.53;27.88;;;4.70;99.90;;;;;;5117349;28;20070;-85
2021/12/20 01:07:29;;;;;;;;;;;4.70;99.90;;;;;;5117734;28;20054;-84
2021/12/20 01:09:58;;;;;;;66.38;26.77;;;4.60;99.90;;;;;;5117147;28;19975;-84
2021/12/20 01:12:30;;;;;;;67.68;25.55;;;4.70;99.90;;;;;;5117508;28;20121;-84
2021/12/20 01:15:00;;;;;;;61.33;26.77;;;4.60;99.90;;;;;;5117567;28;20044;-84
2021/12/20 01:17:26;;;;;;;;;;;4.60;99.90;;;;;;5117733;28;20142;-85
2021/12/20 01:19:53;;;;;;;59.00;26.45;;;4.60;99.90;;;;;;5117401;28;19924;-84
2021/12/20 01:22:22;;;;;;;61.83;26.52;;;4.70;99.90;;;;;;5116985;28;20103;-84
2021/12/20 01:24:49;;;;;;;70.07;29.53;;;4.70;99.90;;;;;;5116671;28;20086;-84
2021/12/20 01:27:16;;;;;;;71.80;29.33;;;4.60;99.90;;;;;;5117072;28;20380;-84
2021/12/20 01:29:42;;;;;;;72.55;30.52;;;4.60;99.90;;;;;;5116946;28;20039;-84
2021/12/20 01:32:10;;;;;;;75.97;31.63;;;4.60;99.90;;;;;;5116926;28;20101;-83
2021/12/20 01:34:38;;;;;;;72.50;31.38;;;4.60;99.90;;;;;;5117018;28;20100;-84
2021/12/20 01:37:05;;;;;;;67.07;29.27;;;4.60;99.90;;;;;;5116923;28;20044;-84
2021/12/20 01:39:33;;;;;;;72.22;29.40;;;4.60;99.90;;;;;;5116951;28;20048;-83
2021/12/20 01:42:03;;;;;;;61.63;26.23;;;4.60;99.90;;;;;;5116899;28;20048;-84
2021/12/20 01:44:31;;;;;;;70.80;30.23;;;4.70;99.90;;;;;;5116964;28;20288;-83
2021/12/20 01:47:01;;;;;;;78.07;30.92;;;4.70;99.90;;;;;;5116437;28;20050;-84
2021/12/20 01:49:30;;;;;;;64.25;27.27;;;4.70;99.90;;;;;;5116616;28;20409;-84
2021/12/20 01:52:04;;;;;;;71.05;30.13;;;4.60;99.90;;;;;;5116111;28;20039;-84
2021/12/20 01:54:33;;;;;;;70.20;28.55;;;4.60;99.90;;;;;;5116533;28;20456;-84
2021/12/20 01:57:00;;;;;;;71.38;28.00;;;4.60;99.90;;;;;;5116227;28;20055;-84
2021/12/20 01:59:28;;;;;;;72.10;28.27;;;4.80;99.90;;;;;;5116147;28;20406;-84
2021/12/20 02:01:55;;;;;;;62.10;25.95;;;4.60;99.90;;;;;;5115821;28;20043;-83
2021/12/20 02:04:23;;;;;;;66.07;29.63;;;4.70;99.90;;;;;;5115730;28;20093;-85
2021/12/20 02:06:51;;;;;;;54.70;24.15;;;4.70;99.90;;;;;;5116122;28;20044;-84
2021/12/20 02:09:19;;;;;;;63.45;27.58;;;4.90;99.90;;;;;;5115920;28;20401;-84
2021/12/20 02:11:49;;;;;;;74.57;32.47;;;4.90;99.90;;;;;;5115647;28;20071;-84
2021/12/20 02:14:17;;;;;;;72.63;30.90;;;4.90;99.90;;;;;;5112759;28;20372;-85
2021/12/20 02:16:45;;;;;;;66.20;29.50;;;4.90;99.90;;;;;;5115952;28;20462;-85
2021/12/20 02:19:15;;;;;;;78.55;29.90;;;4.80;99.90;;;;;;5116291;28;20100;-84
2021/12/20 02:21:45;;;;;;;75.75;31.38;;;4.80;99.90;;;;;;5115946;28;20048;-84
2021/12/20 02:24:12;;;;;;;69.35;29.60;;;4.80;99.90;;;;;;5109061;28;20058;-84
2021/12/20 02:26:39;;;;;;;69.63;28.67;;;4.70;99.90;;;;;;5115612;28;20502;-84
2021/12/20 02:29:08;;;;;;;71.85;28.25;;;4.80;99.90;;;;;;5116015;28;20044;-84
2021/12/20 02:37:26;;;;;;;70.78;29.15;;;4.80;99.90;;;;;;5115633;28;20055;-84
2021/12/20 02:39:53;;;;;;;70.10;29.38;;;4.70;99.90;;;;;;5115644;28;20051;-84
2021/12/20 02:42:25;;;;;;;73.32;29.10;;;4.70;99.90;;;;;;5115496;28;20105;-84
2021/12/20 02:45:07;;;;;;;62.22;27.40;;;4.60;99.90;;;;;;5115680;28;20047;-85
2021/12/20 02:47:36;;;;;;;64.05;28.17;;;4.70;99.90;;;;;;5115446;28;20044;-85
2021/12/20 02:50:04;;;;;;;65.18;27.10;;;4.90;99.90;;;;;;5115365;28;20139;-84
2021/12/20 02:52:33;;;;;;;65.07;28.50;;;4.80;99.90;;;;;;5115378;28;20093;-84
2021/12/20 02:55:00;;;;;;;67.10;26.77;;;4.80;99.90;;;;;;5115597;28;20040;-85
2021/12/20 02:57:27;;;;;;;66.35;26.40;;;4.80;99.90;;;;;;5115653;28;20078;-84
2021/12/20 02:59:54;;;;;;;60.22;26.75;;;4.80;99.90;;;;;;5115528;28;20048;-85
2021/12/20 03:02:23;;;;;;;56.90;25.35;;;4.80;99.90;;;;;;5115267;28;20101;-84
2021/12/20 03:04:50;;;;;;;64.22;29.23;;;4.80;99.90;;;;;;5115140;28;20135;-84
2021/12/20 03:07:23;;;;;;;66.45;26.17;;;4.80;99.90;;;;;;5115241;28;20383;-84
2021/12/20 03:09:57;;;;;;;56.75;24.13;;;4.80;99.90;;;;;;5114752;28;20055;-84
2021/12/20 03:12:27;;;;;;;57.20;25.38;;;4.70;99.90;;;;;;5114803;28;20134;-84
2021/12/20 03:15:00;;;;;;;62.00;26.25;;;4.70;99.90;;;;;;5114737;28;20048;-84
2021/12/20 03:17:28;;;;;;;64.13;27.45;;;4.70;99.90;;;;;;5114842;28;20083;-84
2021/12/20 03:19:55;;;;;;;64.60;26.95;;;4.70;99.90;;;;;;5114779;28;20051;-84
2021/12/20 03:22:22;;;;;;;62.58;27.27;;;4.60;99.90;;;;;;5114922;28;20047;-84
2021/12/20 03:24:49;;;;;;;60.80;25.52;;;4.60;99.90;;;;;;5114783;28;20051;-84
2021/12/20 03:27:18;;;;;;;63.97;27.27;;;4.70;99.90;;;;;;5114564;28;20491;-84
2021/12/20 03:29:45;;;;;;;61.40;26.00;;;4.70;99.90;;;;;;5114798;28;20058;-85
2021/12/20 03:32:12;;;;;;;66.32;27.52;;;4.70;99.90;;;;;;5113979;28;20494;-85
2021/12/20 03:34:39;;;;;;;55.83;25.63;;;4.60;99.90;;;;;;5114716;28;20048;-84
2021/12/20 03:37:06;;;;;;;56.78;25.73;;;4.60;99.90;;;;;;5114394;28;20047;-85
2021/12/20 03:39:33;;;;;;;58.15;25.90;;;4.60;99.90;;;;;;5114608;28;20043;-85
2021/12/20 03:42:01;;;;;;;63.67;25.85;;;4.70;99.90;;;;;;5114299;28;20514;-84
2021/12/20 03:44:32;;;;;;;60.28;26.00;;;4.70;99.90;;;;;;5114568;28;20051;-85
2021/12/20 03:47:00;;;;;;;59.10;25.10;;;4.80;99.90;;;;;;5114308;28;20082;-85
2021/12/20 03:49:27;;;;;;;54.17;23.58;;;4.70;99.90;;;;;;5114657;28;20048;-85
2021/12/20 03:51:54;;;;;;;57.22;25.40;;;5.00;99.90;;;;;;5114481;28;20112;-84
2021/12/20 03:54:22;;;;;;;52.63;22.85;;;4.80;99.90;;;;;;5114109;28;20489;-84
2021/12/20 03:56:49;;;;;;;49.22;23.70;;;4.90;99.90;;;;;;5114329;28;20096;-84
2021/12/20 03:59:16;;;;;;;62.63;26.58;;;4.90;99.90;;;;;;5114116;28;20071;-84
2021/12/20 04:01:44;;;;;;;60.30;24.60;;;4.80;99.90;;;;;;5114453;28;20040;-85
2021/12/20 04:04:11;;;;;;;59.72;27.13;;;4.80;99.90;;;;;;5114041;28;20482;-84
2021/12/20 04:06:39;;;;;;;70.43;28.10;;;4.80;99.90;;;;;;5114193;28;20472;-85
2021/12/20 04:09:06;;;;;;;65.38;27.08;;;4.80;99.90;;;;;;5113387;28;20143;-84
2021/12/20 04:11:33;;;;;;;58.70;24.70;;;4.70;99.90;;;;;;5111655;28;20101;-85
2021/12/20 04:14:01;;;;;;;61.05;24.88;;;4.80;99.90;;;;;;5114164;28;20059;-84
2021/12/20 04:16:29;;;;;;;58.40;25.65;;;5.00;99.90;;;;;;5113971;28;20054;-84
2021/12/20 04:18:57;;;;;;;51.38;24.15;;;5.10;99.90;;;;;;5114109;28;20077;-84
2021/12/20 04:21:24;;;;;;;49.72;22.75;;;5.10;99.90;;;;;;5113971;28;20040;-84
2021/12/20 04:23:52;;;;;;;53.10;24.25;;;5.00;99.90;;;;;;5113924;28;20070;-84
2021/12/20 04:26:19;;;;;;;54.15;24.90;;;5.10;99.90;;;;;;5113782;28;20455;-84
2021/12/20 04:28:46;;;;;;;64.82;29.40;;;5.10;99.90;;;;;;5117521;28;20478;-85
2021/12/20 04:31:13;;;;;;;70.70;29.60;;;5.00;99.90;;;;;;5117772;28;20047;-85
2021/12/20 04:33:40;;;;;;;70.43;28.55;;;4.90;99.90;;;;;;5097172;28;20044;-85
2021/12/20 04:36:08;;;;;;;65.85;27.88;;;4.90;99.90;;;;;;5096865;28;20452;-85
2021/12/20 04:38:36;;;;;;;76.30;31.17;;;4.90;99.90;;;;;;5097144;28;20079;-85
2021/12/20 04:41:03;;;;;;;70.07;29.10;;;4.90;99.90;;;;;;5097192;28;20051;-85
2021/12/20 04:43:30;;;;;;;66.03;30.08;;;4.90;99.90;;;;;;5097266;28;20044;-83
2021/12/20 04:45:57;;;;;;;70.68;28.88;;;4.80;99.90;;;;;;5097061;28;20048;-84
2021/12/20 04:48:24;;;;;;;64.00;27.65;;;4.80;99.90;;;;;;5097125;28;20048;-84
2021/12/20 04:50:51;;;;;;;63.80;28.52;;;4.80;99.90;;;;;;5097007;28;20083;-84
2021/12/20 04:53:19;;;;;;;67.38;28.02;;;4.70;99.90;;;;;;5096983;28;20080;-84
2021/12/20 04:55:46;;;;;;;72.33;29.10;;;4.80;99.90;;;;;;5097276;28;20466;-84
2021/12/20 04:58:14;;;;;;;63.88;26.92;;;4.80;99.90;;;;;;5096933;28;20391;-84
2021/12/20 05:00:43;;;;;;;64.43;28.33;;;4.80;99.90;;;;;;5096572;28;20105;-84
2021/12/20 05:03:12;;;;;;;56.28;24.35;;;5.10;99.90;;;;;;5096900;28;20048;-84
2021/12/20 05:05:40;;;;;;;71.20;31.75;;;5.00;99.90;;;;;;5096637;28;20152;-84
2021/12/20 05:08:07;;;;;;;68.35;27.42;;;5.10;99.90;;;;;;5096543;28;20051;-84
2021/12/20 05:10:39;;;;;;;78.75;30.67;;;5.00;99.90;;;;;;5096644;28;20044;-84
2021/12/20 05:13:08;;;;;;;73.97;31.30;;;5.00;99.90;;;;;;5096578;28;20048;-84
2021/12/20 05:15:36;;;;;;;;;;;4.90;99.90;;;;;;5097068;28;20075;-84
2021/12/20 05:18:03;;;;;;;71.88;30.90;;;5.00;99.90;;;;;;5096188;28;20287;-84
2021/12/20 05:20:31;;;;;;;65.78;29.02;;;5.10;99.90;;;;;;5096528;28;20093;-84
2021/12/20 05:22:59;;;;;;;72.72;29.23;;;5.10;99.90;;;;;;5096619;28;20117;-84
2021/12/20 05:25:27;;;;;;;67.50;29.35;;;5.10;99.90;;;;;;5096253;28;20147;-84
2021/12/20 05:27:56;;;;;;;68.68;29.08;;;5.10;99.90;;;;;;5096204;28;20073;-84
2021/12/20 05:30:23;;;;;;;76.20;28.80;;;5.00;99.90;;;;;;5096358;28;20141;-85
2021/12/20 05:32:50;;;;;;;70.72;31.00;;;4.90;99.90;;;;;;5109265;28;20052;-84
2021/12/20 05:35:19;;;;;;;65.82;27.42;;;5.10;99.90;;;;;;5116448;28;20051;-84
2021/12/20 05:37:46;;;;;;;69.43;29.90;;;5.10;99.90;;;;;;5115149;28;20475;-84
2021/12/20 05:40:14;;;;;;;65.03;30.40;;;5.00;99.90;;;;;;5116414;28;20092;-84
2021/12/20 05:42:42;;;;;;;59.70;27.77;;;5.00;99.90;;;;;;5116305;28;20071;-85
2021/12/20 05:45:11;;;;;;;69.38;32.25;;;5.00;99.90;;;;;;5116106;28;20112;-84
2021/12/20 05:47:39;;;;;;;70.28;32.10;;;4.90;99.90;;;;;;5116195;28;20052;-85
2021/12/20 05:50:08;;;;;;;69.10;28.45;;;4.90;99.90;;;;;;5115037;28;20086;-84
2021/12/20 05:52:35;;;;;;;66.40;27.75;;;5.00;99.90;;;;;;5116204;28;20130;-84
2021/12/20 05:55:03;;;;;;;57.78;24.20;;;5.00;99.90;;;;;;5116105;28;20039;-84
2021/12/20 05:57:32;;;;;;;70.65;30.50;;;5.10;99.90;;;;;;5115810;28;20043;-85
2021/12/20 05:59:59;;;;;;;67.63;30.00;;;5.00;99.90;;;;;;5115955;28;20043;-84
2021/12/20 06:02:28;;;;;;;64.50;30.65;;;5.00;99.90;;;;;;5111989;28;20075;-84
2021/12/20 06:04:55;;;;;;;73.65;32.40;;;4.80;99.90;;;;;;5115621;28;20052;-85
2021/12/20 06:07:23;;;;;;;61.35;28.05;;;4.80;99.90;;;;;;5115385;28;20121;-85
2021/12/20 06:09:50;;;;;;;72.45;29.80;;;4.90;99.90;;;;;;5115819;28;20043;-84
2021/12/20 06:12:17;;;;;;;60.70;26.50;;;4.90;99.90;;;;;;5115274;28;20172;-84
2021/12/20 06:14:44;;;;;;;62.00;28.30;;;4.90;99.90;;;;;;5115625;28;20459;-84
2021/12/20 06:17:11;;;;;;;68.15;28.95;;;5.00;99.90;;;;;;5115175;28;20105;-84
2021/12/20 06:19:40;;;;;;;73.53;31.65;;;5.00;99.90;;;;;;5115232;28;20090;-84
2021/12/20 06:22:10;;;;;;;;;;;4.90;99.90;;;;;;5115814;28;20047;-85
2021/12/20 06:24:37;;;;;;;60.92;27.52;;;4.90;99.90;;;;;;5115709;28;20115;-84
2021/12/20 06:27:04;;;;;;;69.72;28.23;;;4.90;99.90;;;;;;5115237;28;20047;-84
2021/12/20 06:29:31;;;;;;;62.85;29.85;;;4.90;99.90;;;;;;5115552;28;20079;-84
2021/12/20 06:31:58;;;;;;;58.85;26.92;;;4.90;99.90;;;;;;5115247;28;20036;-84
2021/12/20 06:34:26;;;;;;;55.72;23.85;;;4.90;99.90;;;;;;5115350;28;20507;-84
2021/12/20 06:36:54;;;;;;;53.85;27.63;;;5.00;99.90;;;;;;5115030;28;20207;-84
2021/12/20 06:39:23;;;;;;;63.03;29.08;;;5.20;99.90;;;;;;5114996;28;20087;-84
2021/12/20 06:41:51;;;;;;;56.58;27.73;;;5.10;99.90;;;;;;5114859;28;20123;-84
2021/12/20 06:44:18;;;;;;;63.75;29.05;;;5.00;99.90;;;;;;5114847;28;20531;-84
2021/12/20 06:46:46;;;;;;;64.82;28.90;;;5.00;99.90;;;;;;5114843;28;20044;-84
2021/12/20 06:49:13;;;;;;;66.82;29.02;;;5.00;99.90;;;;;;5114095;28;20082;-84
2021/12/20 06:51:43;;;;;;;68.90;27.52;;;4.90;99.90;;;;;;5115076;28;20160;-84
2021/12/20 06:54:12;;;;;;;61.72;27.40;;;5.00;99.90;;;;;;5115166;28;20071;-84
2021/12/20 06:56:39;;;;;;;;;;;5.00;99.90;;;;;;5116259;28;20085;-85
2021/12/20 06:59:07;;;;;;;57.03;27.15;;;5.00;99.90;;;;;;5115114;28;19974;-85
2021/12/20 07:01:34;;;;;;;59.08;27.33;;;5.00;99.90;;;;;;5114770;28;20048;-84
2021/12/20 07:04:02;;;;;;;64.00;27.60;;;4.90;99.90;;;;;;5114364;28;20039;-85
2021/12/20 07:06:29;;;;;;;73.15;31.63;;;4.90;99.90;;;;;;5114135;28;20058;-84
2021/12/20 07:08:56;;;;;;;65.93;30.15;;;4.90;99.90;;;;;;5114636;28;20100;-85
2021/12/20 07:11:24;;;;;;;68.80;28.17;;;4.90;99.90;;;;;;5114565;28;20044;-84
2021/12/20 07:13:53;;;;;;;75.20;33.28;;;4.90;99.90;;;;;;5114374;28;20058;-84
2021/12/20 07:16:21;;;;;;;60.45;29.17;;;4.90;99.90;;;;;;5114651;28;20108;-85
2021/12/20 07:18:48;;;;;;;60.20;27.50;;;4.90;99.90;;;;;;5114345;28;20447;-85
2021/12/20 07:21:15;;;;;;;56.22;26.85;;;4.90;99.90;;;;;;5115104;28;20048;-85
2021/12/20 07:23:42;;;;;;;56.78;26.13;;;5.30;99.90;;;;;;5115220;28;20096;-85
2021/12/20 07:26:12;;;;;;;65.00;27.70;;;5.30;99.90;;;;;;5114850;28;20089;-84
2021/12/20 07:28:42;;;;;;;55.30;27.02;;;5.20;99.90;;;;;;5114297;28;20104;-84
2021/12/20 07:31:10;;;;;;;55.60;26.83;;;5.30;99.90;;;;;;5114939;28;20036;-84
2021/12/20 07:33:37;;;;;;;55.53;25.75;;;5.40;99.90;;;;;;5114686;28;20108;-84
2021/12/20 07:36:04;;;;;;;57.78;26.05;;;5.30;99.90;;;;;;5114618;28;20085;-84
2021/12/20 07:38:31;;;;;;;51.20;24.77;;;5.20;99.90;;;;;;5114292;28;20554;-84
2021/12/20 07:41:00;;;;;;;49.70;23.88;;;5.20;99.90;;;;;;5114402;28;20050;-84
2021/12/20 07:43:29;;;;;;;43.55;21.67;;;5.20;99.90;;;;;;5115194;28;20051;-84
2021/12/20 07:45:58;;;;;;;53.83;24.45;;;5.30;99.90;;;;;;5114715;28;20043;-85
2021/12/20 07:48:27;;;;;;;51.23;24.07;;;5.30;99.90;;;;;;5114153;28;20129;-84
2021/12/20 07:50:54;;;;;;;47.35;24.33;;;5.30;99.90;;;;;;5114410;28;20288;-84
2021/12/20 07:53:21;;;;;;;51.05;25.30;;;5.40;99.90;;;;;;5115022;28;20046;-84
2021/12/20 07:55:48;;;;;;;50.33;24.15;;;5.30;99.90;;;;;;5114253;28;20047;-84
2021/12/20 07:58:15;;;;;;;52.50;24.20;;;5.30;99.90;;;;;;5111090;28;20089;-84
2021/12/20 08:00:42;;;;;;;62.47;27.83;;;5.30;99.90;;;;;;5114050;28;20040;-84
2021/12/20 08:03:11;;;;;;;47.38;25.05;;;5.40;99.90;;;;;;5113806;28;20047;-85
2021/12/20 08:05:38;;;;;;;52.13;25.80;;;5.30;99.90;;;;;;5114295;28;20413;-85
2021/12/20 08:08:06;;;;;;;59.08;27.45;;;5.30;99.90;;;;;;5113987;28;20052;-85
2021/12/20 08:10:33;;;;;;;52.10;25.55;;;5.20;99.90;;;;;;5114362;28;20112;-84
2021/12/20 08:13:00;;;;;;;51.88;24.85;;;5.30;99.90;;;;;;5115727;28;20050;-84
2021/12/20 08:15:28;;;;;;;55.28;25.67;;;5.30;99.90;;;;;;5114526;28;20059;-85
2021/12/20 08:17:58;;;;;;;63.42;26.02;;;5.30;99.90;;;;;;5113499;28;20097;-84
2021/12/20 08:20:27;;;;;;;57.78;28.27;;;5.30;99.90;;;;;;5114637;28;20048;-85
2021/12/20 08:22:58;;;;;;;46.92;23.88;;;5.30;99.90;;;;;;5114111;28;20047;-85
2021/12/20 08:25:25;;;;;;;49.15;25.52;;;5.30;99.90;;;;;;5113882;28;20044;-85
2021/12/20 08:27:52;;;;;;;44.40;22.60;;;5.30;99.90;;;;;;5114038;28;20055;-86
2021/12/20 08:30:21;;;;;;;47.00;21.75;;;5.30;99.90;;;;;;5113431;28;20064;-83
2021/12/20 08:32:48;;;;;;;53.45;23.25;;;5.40;99.90;;;;;;5113890;28;20052;-84
2021/12/20 08:35:16;;;;;;;50.05;23.52;;;5.60;99.90;;;;;;5115086;28;20070;-85
2021/12/20 08:37:45;;;;;;;45.38;24.67;;;5.60;99.90;;;;;;5113993;28;20065;-84
2021/12/20 08:40:14;;;;;;;53.13;24.35;;;5.60;99.90;;;;;;5113439;28;20434;-84
2021/12/20 08:42:45;;;;;;;50.38;25.83;;;5.50;99.90;;;;;;5113269;28;20047;-84
2021/12/20 08:45:13;;;;;;;46.22;25.00;;;5.40;99.90;;;;;;5113551;28;20047;-85
2021/12/20 08:47:41;;;;;;;47.08;23.92;;;5.40;99.90;;;;;;5097187;28;20060;-86
2021/12/20 08:50:13;;;;;;;59.90;26.45;;;5.30;99.90;;;;;;5108122;28;20048;-82
2021/12/20 08:52:40;;;;;;;45.33;23.15;;;5.30;99.90;;;;;;5078052;28;20048;-83
2021/12/20 08:55:11;;;;;;;58.67;26.60;;;5.60;99.90;;;;;;5020027;28;20616;-83
2021/12/20 08:57:40;;;;;;;51.47;24.75;;;5.60;99.90;;;;;;5110495;28;20044;-85
2021/12/20 09:00:12;;;;;;;;;;;5.60;99.90;;;;;;5111560;28;20466;-85
2021/12/20 09:02:39;;;;;;;48.70;24.63;;;5.60;99.90;;;;;;5110878;28;19919;-84
2021/12/20 09:05:07;;;;;;;45.90;25.13;;;5.70;99.90;;;;;;5111311;28;20191;-85
2021/12/20 09:07:34;;;;;;;49.30;24.13;;;5.70;99.90;;;;;;5108303;28;20207;-86
2021/12/20 09:10:01;;;;;;;57.08;27.33;;;5.70;99.90;;;;;;5106147;28;20052;-85
2021/12/20 09:12:29;;;;;;;47.33;26.65;;;5.80;99.90;;;;;;5110900;28;20047;-88
2021/12/20 09:14:57;;;;;;;47.97;25.08;;;5.80;99.90;;;;;;5116349;27;20043;-89
2021/12/20 09:17:26;;;;;;;43.15;23.15;;;5.80;99.90;;;;;;5127456;27;20382;-89
2021/12/20 09:19:53;;;;;;;51.55;25.48;;;5.90;99.90;;;;;;5119529;27;20388;-89
2021/12/20 09:22:26;;;;;;;44.92;24.73;;;5.90;99.90;;;;;;5121480;27;20054;-89
2021/12/20 09:24:55;;;;;;;45.70;23.08;;;5.80;99.90;;;;;;5117396;27;20044;-88
2021/12/20 09:27:23;;;;;;;44.97;23.60;;;5.90;99.90;;;;;;5114418;27;20437;-87
2021/12/20 09:29:51;;;;;;;47.72;24.45;;;6.00;99.90;;;;;;5111010;27;20523;-89
2021/12/20 09:32:18;;;;;;;46.00;25.00;;;5.90;99.90;;;;;;5115885;27;20039;-87
2021/12/20 09:34:45;;;;;;;47.25;24.23;;;5.90;99.90;;;;;;5114419;27;20044;-89
2021/12/20 09:37:12;;;;;;;46.22;24.52;;;5.90;99.90;;;;;;5114444;27;20610;-88
2021/12/20 09:39:41;;;;;;;48.25;23.02;;;5.80;99.90;;;;;;5118846;27;20101;-87
2021/12/20 09:42:12;;;;;;;57.13;23.05;;;6.20;99.90;;;;;;5121613;27;20039;-87
2021/12/20 09:44:44;;;;;;;43.67;22.67;;;6.00;99.90;;;;;;5113406;27;20051;-87
2021/12/20 09:47:13;;;;;;;49.53;25.52;;;6.00;99.90;;;;;;5116648;27;20105;-90
2021/12/20 09:49:40;;;;;;;48.92;23.92;;;6.00;99.90;;;;;;5107702;28;20067;-89
2021/12/20 09:52:08;;;;;;;47.58;22.38;;;6.20;99.90;;;;;;5041122;27;21044;-90
2021/12/20 09:54:37;;;;;;;45.92;22.75;;;7.40;99.90;;;;;;5034675;28;20042;-91
2021/12/20 09:57:08;;;;;;;47.17;23.40;;;6.10;99.90;;;;;;5048592;22;20151;-90
2021/12/20 09:59:38;;;;;;;41.13;21.13;;;6.30;99.90;;;;;;4986272;28;20036;-89
2021/12/20 10:02:12;;;;;;;47.92;20.15;;;6.80;99.90;;;;;;4985373;28;21255;-88
2021/12/20 10:04:41;;;;;;;42.00;18.63;;;6.40;99.90;;;;;;4985958;28;20036;-89
2021/12/20 10:07:09;;;;;;;44.55;18.85;;;6.40;99.90;;;;;;4994244;28;20055;-90
2021/12/20 10:09:41;;;;;;;38.55;18.88;;;6.50;99.90;;;;;;4987165;28;20091;-87
2021/12/20 10:12:17;;;;;;;34.97;18.50;;;6.50;99.90;;;;;;4995417;28;20063;-88
2021/12/20 10:14:59;;;;;;;33.33;16.45;;;6.80;99.90;;;;;;4994811;28;20055;-88
2021/12/20 10:17:29;;;;;;;45.60;17.73;;;6.50;99.90;;;;;;4990782;28;20833;-88
2021/12/20 10:20:14;;;;;;;32.78;17.52;;;6.50;99.90;;;;;;4987710;28;20055;-88
2021/12/20 10:22:41;;;;;;;30.08;15.73;;;6.90;99.90;;;;;;4991208;28;20129;-89
2021/12/20 10:25:27;;;;;;;41.47;15.82;;;6.60;99.90;;;;;;4985659;28;20059;-89
2021/12/20 10:27:55;;;;;;;31.27;14.63;;;6.70;99.90;;;;;;4988301;28;20838;-91
2021/12/20 10:30:29;;;;;;;27.98;13.10;;;6.70;99.90;;;;;;4978308;28;20052;-89
2021/12/20 10:32:58;;;;;;;30.25;14.75;;;6.80;99.90;;;;;;4983780;28;20052;-92
2021/12/20 10:35:32;;;;;;;26.98;13.48;;;7.10;99.90;;;;;;4991270;28;21142;-89
2021/12/20 10:38:01;;;;;;;27.17;14.18;;;6.90;99.90;;;;;;4991273;28;20852;-90
2021/12/20 10:40:28;;;;;;;32.20;12.25;;;6.80;99.90;;;;;;4987850;28;20064;-92
2021/12/20 10:42:57;;;;;;;20.70;10.60;;;6.90;99.90;;;;;;4991392;28;20060;-89
2021/12/20 10:45:26;;;;;;;23.08;11.48;;;6.90;99.90;;;;;;5000210;28;20048;-90
2021/12/20 10:47:54;;;;;;;32.53;13.27;;;7.00;99.90;;;;;;4998457;28;20033;-88
2021/12/20 10:50:31;;;;;;;19.63;11.52;;;6.90;99.90;;;;;;4990555;28;20381;-89
2021/12/20 10:53:15;;;;;;;30.85;12.38;;;7.10;99.90;;;;;;5000608;28;20043;-88
2021/12/20 10:55:44;;;;;;;23.25;12.07;;;6.10;99.90;;;;;;5000377;28;20617;-89
2021/12/20 10:58:33;;;;;;;23.42;12.27;;;7.10;99.90;;;;;;5004662;28;20071;-91
2021/12/20 11:01:23;;;;;;;23.17;11.55;;;7.10;99.90;;;;;;5007194;28;20045;-87
2021/12/20 11:04:03;;;;;;;32.67;9.93;;;6.80;99.90;;;;;;5067423;28;20051;-86
2021/12/20 11:09:38;;;;;;;15.75;8.60;;;7.20;99.90;;;;;;5076368;28;20048;-90
2021/12/20 11:12:09;;;;;;;32.97;12.50;;;7.30;99.90;;;;;;5019149;28;20316;-88
2021/12/20 11:14:40;;;;;;;33.83;9.70;;;7.20;99.90;;;;;;4993459;28;20084;-90
2021/12/20 11:17:09;;;;;;;29.40;11.07;;;7.30;99.90;;;;;;4993916;28;20052;-90
2021/12/20 11:19:37;;;;;;;27.52;10.10;;;7.20;99.90;;;;;;5000711;28;20249;-89
2021/12/20 11:22:09;;;;;;;20.80;8.05;;;7.30;99.90;;;;;;5073725;28;20441;-90
2021/12/20 11:24:41;;;;;;;16.08;5.85;;;7.40;99.90;;;;;;5072550;28;20502;-89
2021/12/20 11:27:12;;;;;;;18.40;6.40;;;7.40;99.90;;;;;;5077792;28;20045;-90
2021/12/20 11:29:40;;;;;;;15.88;6.10;;;7.40;99.90;;;;;;5071810;28;20109;-88
2021/12/20 11:32:09;;;;;;;15.70;6.47;;;7.40;99.90;;;;;;5075597;28;20040;-90
2021/12/20 11:34:38;;;;;;;18.55;5.85;;;8.00;99.90;;;;;;5071874;28;20048;-90
2021/12/20 11:37:07;;;;;;;22.95;8.02;;;7.40;99.90;;;;;;5070126;28;20044;-90
2021/12/20 11:39:38;;;;;;;;;;;7.40;99.90;;;;;;5074914;28;20055;-90
2021/12/20 11:42:07;;;;;;;33.90;7.28;;;7.40;99.90;;;;;;5069346;28;19920;-89
2021/12/20 11:44:37;;;;;;;11.50;5.20;;;7.40;99.90;;;;;;5070280;28;20461;-90
2021/12/20 11:47:10;;;;;;;15.70;6.82;;;7.40;99.90;;;;;;5073200;28;20109;-90
2021/12/20 11:49:40;;;;;;;14.93;6.05;;;7.40;99.90;;;;;;5071300;28;20044;-90
2021/12/20 11:52:16;;;;;;;33.83;6.85;;;7.50;99.90;;;;;;5068318;28;20098;-89
2021/12/20 11:54:49;;;;;;;29.65;9.55;;;7.50;99.90;;;;;;5078551;28;20048;-90
2021/12/20 11:57:52;;;;;;;21.27;7.07;;;7.30;99.90;;;;;;5004327;28;20066;-87
2021/12/20 12:00:26;;;;;;;14.43;6.07;;;7.40;99.90;;;;;;4993755;28;20056;-89
2021/12/20 12:02:58;;;;;;;14.57;4.80;;;7.40;99.90;;;;;;4996841;28;20040;-89
2021/12/20 12:05:38;;;;;;;16.90;7.18;;;7.30;99.90;;;;;;4996964;28;20047;-90
2021/12/20 12:08:34;;;;;;;34.25;8.40;;;7.40;99.90;;;;;;5008522;28;20136;-89
2021/12/20 12:11:32;;;;;;;30.55;8.07;;;7.50;99.90;;;;;;5002058;28;20115;-89
2021/12/20 12:17:09;;;;;;;45.97;8.45;;;7.30;99.90;;;;;;4995146;28;20151;-89
2021/12/20 12:19:41;;;;;;;30.48;8.00;;;8.70;99.90;;;;;;4999455;28;20056;-90
2021/12/20 12:22:37;;;;;;;18.33;6.70;;;7.60;99.90;;;;;;4991843;28;20134;-92
2021/12/20 12:25:09;;;;;;;20.13;6.20;;;7.50;99.90;;;;;;5031952;28;20040;-91
2021/12/20 12:27:44;;;;;;;19.48;7.90;;;7.10;99.90;;;;;;5065886;28;20041;-91
2021/12/20 12:30:33;;;;;;;27.02;9.13;;;8.20;99.90;;;;;;5072372;28;20037;-89
2021/12/20 12:33:35;;;;;;;28.65;9.10;;;7.30;99.90;;;;;;5034046;28;20040;-90
2021/12/20 12:36:25;;;;;;;17.75;7.63;;;7.50;99.90;;;;;;4985345;28;20625;-89
2021/12/20 12:38:56;;;;;;;30.15;9.57;;;7.80;99.90;;;;;;4989169;28;20059;-88
2021/12/20 12:41:32;;;;;;;29.63;10.52;;;7.50;99.90;;;;;;4983901;28;20041;-89
2021/12/20 12:44:28;;;;;;;28.13;11.07;;;7.40;99.90;;;;;;4985013;28;21826;-90
2021/12/20 12:47:00;;;;;;;33.45;11.20;;;8.10;99.90;;;;;;4988618;28;20041;-89
2021/12/20 12:49:49;;;;;;;49.78;13.23;;;7.50;99.90;;;;;;5046112;28;20136;-90
2021/12/20 12:52:37;;;;;;;40.20;12.07;;;7.50;99.90;;;;;;5078842;28;20052;-88
2021/12/20 12:55:08;;;;;;;65.57;14.48;;;7.50;99.90;;;;;;5069852;28;20086;-89
2021/12/20 12:57:43;;;;;;;33.10;11.68;;;7.40;99.90;;;;;;5060796;28;20057;-90
2021/12/20 13:00:24;;;;;;;23.58;12.38;;;7.50;99.90;;;;;;5077782;28;21304;-89
2021/12/20 13:02:53;;;;;;;39.83;12.60;;;7.60;99.90;;;;;;5083501;28;20048;-89
2021/12/20 13:05:25;;;;;;;29.17;12.25;;;7.70;99.90;;;;;;5074611;28;20041;-90
2021/12/20 13:08:01;;;;;;;29.02;12.30;;;7.70;99.90;;;;;;5084285;28;20393;-90